Time;durP1;ratioP1;P1;durP2;ratioP2;P2;SDS_P1;SDS_P2;PMS_P1;PMS_P2;Temp;Humidity;BMP_temperature;BMP_pressure;BME280_temperature;BME280_humidity;BME280_pressure;Samples;Min_cycle;Max_cycle;Signal;HPM_P1;HPM_P2
2023/11/30 00:03:15;;;;;;;61.90;30.65;;;;;;;;;;5014472;28;20080;-62
2023/11/30 00:05:41;;;;;;;68.50;31.05;;;;;;;;;;4996185;28;20034;-62
2023/11/30 00:08:07;;;;;;;77.28;32.72;;;;;;;;;;4996172;28;20018;-63
2023/11/30 00:10:32;;;;;;;104.60;39.35;;;;;;;;;;5014108;28;20088;-62
2023/11/30 00:12:58;;;;;;;92.30;33.95;;;;;;;;;;5014023;28;20097;-62
2023/11/30 00:15:23;;;;;;;112.50;40.53;;;;;;;;;;5013713;28;20483;-62
2023/11/30 00:17:49;;;;;;;127.32;42.67;;;;;;;;;;5013901;28;20034;-62
2023/11/30 00:20:14;;;;;;;110.95;40.22;;;;;;;;;;4996050;28;20030;-62
2023/11/30 00:22:41;;;;;;;116.95;40.53;;;;;;;;;;5014170;28;20038;-62
2023/11/30 00:25:06;;;;;;;95.85;35.95;;;;;;;;;;4996072;28;20137;-62
2023/11/30 00:27:32;;;;;;;87.00;33.17;;;;;;;;;;4996369;28;20109;-64
2023/11/30 00:29:57;;;;;;;74.88;30.52;;;;;;;;;;5013621;28;20030;-64
2023/11/30 00:32:23;;;;;;;74.05;31.92;;;;;;;;;;4995995;28;20492;-64
2023/11/30 00:34:48;;;;;;;77.78;31.13;;;;;;;;;;5013544;28;20032;-64
2023/11/30 00:37:14;;;;;;;72.00;30.63;;;;;;;;;;4995963;28;20030;-64
2023/11/30 00:39:39;;;;;;;64.70;30.73;;;;;;;;;;5013540;28;20026;-63
2023/11/30 00:42:05;;;;;;;67.00;29.63;;;;;;;;;;5013942;28;20125;-62
2023/11/30 00:44:30;;;;;;;60.22;28.25;;;;;;;;;;5013504;28;20033;-62
2023/11/30 00:46:55;;;;;;;60.13;28.83;;;;;;;;;;4996037;28;20044;-62
2023/11/30 00:49:21;;;;;;;59.00;27.35;;;;;;;;;;5013547;28;20092;-62
2023/11/30 00:51:46;;;;;;;56.67;27.63;;;;;;;;;;5013672;28;20042;-62
2023/11/30 00:54:11;;;;;;;60.08;27.65;;;;;;;;;;5013407;28;20044;-62
2023/11/30 00:56:37;;;;;;;49.75;24.80;;;;;;;;;;5013888;28;20061;-62
2023/11/30 00:59:04;;;;;;;48.95;24.50;;;;;;;;;;4995778;28;20407;-62
2023/11/30 01:01:29;;;;;;;43.92;22.90;;;;;;;;;;4996358;28;20060;-62
2023/11/30 01:03:55;;;;;;;41.45;22.23;;;;;;;;;;5013338;28;20029;-62
2023/11/30 01:06:20;;;;;;;52.83;32.35;;;;;;;;;;5013819;28;20112;-62
2023/11/30 01:08:45;;;;;;;45.33;25.50;;;;;;;;;;4995617;28;20030;-62
2023/11/30 01:11:11;;;;;;;46.55;23.70;;;;;;;;;;4997618;28;20030;-62
2023/11/30 01:13:36;;;;;;;46.50;24.58;;;;;;;;;;5016711;28;20065;-62
2023/11/30 01:16:01;;;;;;;49.35;23.27;;;;;;;;;;5017339;28;20456;-62
2023/11/30 01:18:27;;;;;;;45.33;22.90;;;;;;;;;;4999077;28;20021;-62
2023/11/30 01:20:52;;;;;;;43.63;22.42;;;;;;;;;;5016708;28;20490;-63
2023/11/30 01:23:18;;;;;;;47.85;23.25;;;;;;;;;;5016581;28;20037;-63
2023/11/30 01:25:43;;;;;;;43.80;21.77;;;;;;;;;;4999144;28;20037;-63
2023/11/30 01:28:09;;;;;;;41.25;20.90;;;;;;;;;;4999350;28;20025;-62
2023/11/30 01:30:35;;;;;;;44.13;23.05;;;;;;;;;;4999558;28;20338;-61
2023/11/30 01:33:00;;;;;;;41.15;22.70;;;;;;;;;;5016346;28;20040;-64
2023/11/30 01:35:28;;;;;;;43.90;22.88;;;;;;;;;;5016648;28;20457;-62
2023/11/30 01:37:54;;;;;;;37.50;20.58;;;;;;;;;;4999015;28;20034;-63
2023/11/30 01:40:20;;;;;;;35.33;20.00;;;;;;;;;;4998668;28;20018;-62
2023/11/30 01:42:46;;;;;;;42.53;23.85;;;;;;;;;;4999156;28;20371;-62
2023/11/30 01:45:12;;;;;;;42.53;22.92;;;;;;;;;;5016235;28;20022;-62
2023/11/30 01:47:37;;;;;;;45.55;22.73;;;;;;;;;;4998971;28;20041;-62
2023/11/30 01:50:03;;;;;;;38.25;20.77;;;;;;;;;;4998825;28;20455;-62
2023/11/30 01:52:28;;;;;;;42.85;21.25;;;;;;;;;;4998728;28;20399;-62
2023/11/30 01:54:54;;;;;;;46.33;21.55;;;;;;;;;;4998384;28;20030;-62
2023/11/30 01:57:20;;;;;;;34.58;19.30;;;;;;;;;;4982270;28;20038;-62
2023/11/30 01:59:46;;;;;;;32.10;17.70;;;;;;;;;;4998984;28;20108;-62
2023/11/30 02:02:13;;;;;;;32.13;17.98;;;;;;;;;;4998703;28;20041;-62
2023/11/30 02:04:40;;;;;;;30.83;17.83;;;;;;;;;;4998211;28;20081;-62
2023/11/30 02:07:06;;;;;;;28.67;16.10;;;;;;;;;;4998153;28;20030;-62
2023/11/30 02:09:31;;;;;;;30.75;16.40;;;;;;;;;;5015715;28;20029;-63
2023/11/30 02:11:56;;;;;;;28.00;16.52;;;;;;;;;;5016019;28;20030;-62
2023/11/30 02:14:22;;;;;;;29.02;15.80;;;;;;;;;;4998602;28;20041;-62
2023/11/30 02:16:47;;;;;;;50.42;20.30;;;;;;;;;;4998031;28;20396;-62
2023/11/30 02:19:13;;;;;;;48.17;19.40;;;;;;;;;;4998755;28;20465;-62
2023/11/30 02:21:38;;;;;;;52.38;19.98;;;;;;;;;;5015559;28;20030;-62
2023/11/30 02:24:05;;;;;;;48.35;21.20;;;;;;;;;;5015903;28;20073;-62
2023/11/30 02:26:30;;;;;;;34.13;17.92;;;;;;;;;;4997942;28;20034;-62
2023/11/30 02:28:55;;;;;;;22.25;13.55;;;;;;;;;;5015396;28;20033;-62
2023/11/30 02:31:21;;;;;;;22.02;13.23;;;;;;;;;;5015734;28;20037;-63
2023/11/30 02:33:46;;;;;;;20.40;13.23;;;;;;;;;;5015394;28;20022;-62
2023/11/30 02:36:12;;;;;;;20.98;12.98;;;;;;;;;;4981502;28;20038;-63
2023/11/30 02:38:38;;;;;;;26.63;15.10;;;;;;;;;;4998193;28;20084;-63
2023/11/30 02:41:03;;;;;;;20.67;12.98;;;;;;;;;;4997665;28;20132;-63
2023/11/30 02:43:29;;;;;;;26.02;15.35;;;;;;;;;;4981389;28;20069;-63
2023/11/30 02:45:55;;;;;;;29.10;16.25;;;;;;;;;;4998047;28;20068;-63
2023/11/30 02:48:20;;;;;;;29.77;15.82;;;;;;;;;;4997417;28;20422;-63
2023/11/30 02:50:46;;;;;;;29.63;15.75;;;;;;;;;;4997574;28;20042;-63
2023/11/30 02:53:11;;;;;;;26.35;15.18;;;;;;;;;;4998005;28;20038;-63
2023/11/30 02:55:36;;;;;;;31.63;16.38;;;;;;;;;;5015284;28;20037;-64
2023/11/30 02:58:02;;;;;;;26.42;14.95;;;;;;;;;;5014948;28;20060;-64
2023/11/30 03:00:27;;;;;;;19.75;11.75;;;;;;;;;;5015096;28;20392;-64
2023/11/30 03:02:53;;;;;;;20.67;12.70;;;;;;;;;;5014728;28;20077;-64
2023/11/30 03:05:18;;;;;;;16.83;10.38;;;;;;;;;;4997254;28;20033;-64
2023/11/30 03:07:43;;;;;;;17.75;11.57;;;;;;;;;;5014646;28;20032;-63
2023/11/30 03:10:09;;;;;;;15.18;10.18;;;;;;;;;;4997159;28;20412;-63
2023/11/30 03:12:34;;;;;;;14.10;9.60;;;;;;;;;;4996945;28;20037;-63
2023/11/30 03:15:00;;;;;;;15.35;10.18;;;;;;;;;;4996955;28;20037;-64
2023/11/30 03:17:25;;;;;;;13.90;9.02;;;;;;;;;;4997211;28;20424;-64
2023/11/30 03:19:51;;;;;;;14.07;10.27;;;;;;;;;;4996819;28;20377;-63
2023/11/30 03:22:16;;;;;;;12.77;9.02;;;;;;;;;;5014330;28;20429;-63
2023/11/30 03:24:41;;;;;;;16.17;10.75;;;;;;;;;;5014506;28;20439;-63
2023/11/30 03:27:11;;;;;;;16.70;10.57;;;;;;;;;;4996740;28;20032;-63
2023/11/30 03:29:37;;;;;;;17.43;11.40;;;;;;;;;;4996683;28;20026;-63
2023/11/30 03:32:02;;;;;;;16.83;11.82;;;;;;;;;;5014242;28;20358;-63
2023/11/30 03:34:28;;;;;;;21.67;12.75;;;;;;;;;;4996420;28;20124;-62
2023/11/30 03:36:54;;;;;;;18.25;11.15;;;;;;;;;;5014193;28;20025;-64
2023/11/30 03:39:19;;;;;;;16.65;11.30;;;;;;;;;;4996695;28;20029;-64
2023/11/30 03:41:47;;;;;;;23.00;13.32;;;;;;;;;;4997308;28;20041;-63
2023/11/30 03:44:12;;;;;;;24.13;14.60;;;;;;;;;;4996451;28;20034;-64
2023/11/30 03:46:38;;;;;;;23.33;13.45;;;;;;;;;;5014676;28;20033;-64
2023/11/30 03:49:03;;;;;;;16.27;11.07;;;;;;;;;;5014534;28;20113;-64
2023/11/30 03:51:28;;;;;;;17.10;10.93;;;;;;;;;;5013987;28;20034;-63
2023/11/30 03:53:54;;;;;;;16.83;10.98;;;;;;;;;;5013975;28;20057;-72
2023/11/30 03:56:19;;;;;;;18.90;11.73;;;;;;;;;;4996362;28;20052;-72
2023/11/30 03:58:45;;;;;;;20.80;13.40;;;;;;;;;;4996537;28;20061;-72
2023/11/30 04:01:10;;;;;;;20.80;12.38;;;;;;;;;;5014047;28;20036;-71
2023/11/30 04:03:36;;;;;;;20.65;13.27;;;;;;;;;;5014079;28;20030;-70
2023/11/30 04:06:03;;;;;;;22.65;13.10;;;;;;;;;;5014326;28;20026;-71
2023/11/30 04:08:28;;;;;;;18.95;11.93;;;;;;;;;;5014472;28;20018;-70
2023/11/30 04:10:54;;;;;;;21.85;13.50;;;;;;;;;;4996135;28;20045;-71
2023/11/30 04:13:20;;;;;;;19.23;13.10;;;;;;;;;;4996505;28;20113;-70
2023/11/30 04:15:45;;;;;;;19.88;12.82;;;;;;;;;;5013858;28;20034;-71
2023/11/30 04:18:10;;;;;;;18.63;11.63;;;;;;;;;;4980659;28;20368;-70
2023/11/30 04:20:40;;;;;;;16.85;11.68;;;;;;;;;;4996534;28;20065;-70
2023/11/30 04:23:08;;;;;;;17.08;11.98;;;;;;;;;;5014035;28;20414;-70
2023/11/30 04:25:34;;;;;;;22.52;14.55;;;;;;;;;;4996102;28;20120;-69
2023/11/30 04:27:59;;;;;;;20.75;14.15;;;;;;;;;;4996087;28;20101;-62
2023/11/30 04:30:25;;;;;;;19.80;13.80;;;;;;;;;;5013845;28;20018;-63
2023/11/30 04:32:50;;;;;;;22.02;14.10;;;;;;;;;;5013762;28;20101;-64
2023/11/30 04:35:17;;;;;;;22.42;14.15;;;;;;;;;;4996640;28;20029;-63
2023/11/30 04:37:42;;;;;;;27.63;16.77;;;;;;;;;;5013884;28;20197;-62
2023/11/30 04:40:08;;;;;;;30.90;19.70;;;;;;;;;;5013568;28;20121;-62
2023/11/30 04:42:33;;;;;;;24.25;15.55;;;;;;;;;;5013610;28;20063;-63
2023/11/30 04:44:59;;;;;;;24.17;14.77;;;;;;;;;;5014118;28;20017;-64
2023/11/30 04:47:24;;;;;;;29.63;17.33;;;;;;;;;;5017699;28;20084;-64
2023/11/30 04:49:50;;;;;;;34.13;18.58;;;;;;;;;;5017531;28;20038;-64
2023/11/30 04:52:16;;;;;;;18.60;12.00;;;;;;;;;;4999272;28;20030;-63
2023/11/30 04:54:41;;;;;;;22.40;14.50;;;;;;;;;;5017166;28;20438;-64
2023/11/30 04:57:07;;;;;;;22.42;14.35;;;;;;;;;;5016168;28;20029;-64
2023/11/30 04:59:32;;;;;;;19.98;14.02;;;;;;;;;;4999065;28;20026;-63
2023/11/30 05:01:58;;;;;;;31.98;18.38;;;;;;;;;;4998220;28;20396;-63
2023/11/30 05:04:23;;;;;;;45.10;22.45;;;;;;;;;;5015574;28;20065;-70
2023/11/30 05:06:49;;;;;;;31.17;19.15;;;;;;;;;;5016087;28;20109;-63
2023/11/30 05:09:15;;;;;;;31.20;18.63;;;;;;;;;;5016054;28;20022;-63
2023/11/30 05:11:46;;;;;;;33.80;18.98;;;;;;;;;;5015671;28;20054;-70
2023/11/30 05:14:11;;;;;;;36.65;21.05;;;;;;;;;;5016818;28;20145;-71
2023/11/30 05:16:39;;;;;;;36.85;19.60;;;;;;;;;;5016373;28;20478;-70
2023/11/30 05:19:04;;;;;;;33.88;19.05;;;;;;;;;;5016312;28;20029;-71
2023/11/30 05:21:30;;;;;;;24.27;15.68;;;;;;;;;;5015252;28;20116;-70
2023/11/30 05:23:55;;;;;;;24.33;16.48;;;;;;;;;;5016130;28;20113;-71
2023/11/30 05:26:22;;;;;;;21.63;14.57;;;;;;;;;;5017205;28;20058;-71
2023/11/30 05:28:47;;;;;;;25.15;16.60;;;;;;;;;;5016783;28;20522;-71
2023/11/30 05:31:12;;;;;;;26.15;17.85;;;;;;;;;;5016082;28;20084;-69
2023/11/30 05:33:38;;;;;;;25.30;17.80;;;;;;;;;;5016419;28;20026;-70
2023/11/30 05:36:03;;;;;;;26.13;18.35;;;;;;;;;;5016730;28;20033;-70
2023/11/30 05:38:29;;;;;;;27.35;19.27;;;;;;;;;;5016262;28;20052;-70
2023/11/30 05:40:54;;;;;;;29.45;18.60;;;;;;;;;;5015702;28;20451;-69
2023/11/30 05:43:20;;;;;;;26.92;18.23;;;;;;;;;;5016297;28;20057;-72
2023/11/30 05:45:46;;;;;;;31.45;20.70;;;;;;;;;;5016185;28;20480;-73
2023/11/30 05:48:11;;;;;;;23.35;16.10;;;;;;;;;;5016060;28;20065;-72
2023/11/30 05:50:36;;;;;;;24.60;17.42;;;;;;;;;;5016252;28;20030;-71
2023/11/30 05:53:02;;;;;;;23.80;16.90;;;;;;;;;;5016034;28;20034;-71
2023/11/30 05:55:27;;;;;;;23.35;16.33;;;;;;;;;;4999670;28;20444;-71
2023/11/30 05:57:53;;;;;;;25.05;16.45;;;;;;;;;;5016043;28;20044;-71
2023/11/30 06:00:18;;;;;;;23.80;16.52;;;;;;;;;;4998493;28;20535;-71
2023/11/30 06:02:44;;;;;;;19.20;14.23;;;;;;;;;;5016452;28;20060;-71
2023/11/30 06:05:10;;;;;;;16.42;12.38;;;;;;;;;;5015819;28;20014;-71
2023/11/30 06:07:35;;;;;;;16.92;11.50;;;;;;;;;;5015676;28;20030;-71
2023/11/30 06:10:01;;;;;;;14.27;11.60;;;;;;;;;;5015432;28;20029;-71
2023/11/30 06:12:26;;;;;;;17.33;12.00;;;;;;;;;;5015422;28;20030;-71
2023/11/30 06:14:52;;;;;;;16.67;12.30;;;;;;;;;;5015984;28;20464;-70
2023/11/30 06:17:17;;;;;;;22.25;15.45;;;;;;;;;;5016052;28;20018;-70
2023/11/30 06:19:43;;;;;;;27.38;17.63;;;;;;;;;;4997949;28;20029;-70
2023/11/30 06:22:08;;;;;;;33.08;19.33;;;;;;;;;;5016058;28;20076;-70
2023/11/30 06:24:34;;;;;;;30.80;18.65;;;;;;;;;;5015709;28;20034;-70
2023/11/30 06:27:01;;;;;;;30.83;18.42;;;;;;;;;;5015438;28;20033;-70
2023/11/30 06:29:26;;;;;;;30.60;19.05;;;;;;;;;;5015916;28;20030;-70
2023/11/30 06:31:52;;;;;;;27.55;18.50;;;;;;;;;;5015314;28;20373;-70
2023/11/30 06:34:18;;;;;;;23.23;15.32;;;;;;;;;;5015110;28;20425;-70
2023/11/30 06:36:43;;;;;;;21.50;15.00;;;;;;;;;;5015206;28;20040;-70
2023/11/30 06:39:08;;;;;;;18.83;13.25;;;;;;;;;;5015486;28;20060;-70
2023/11/30 06:41:35;;;;;;;21.77;14.57;;;;;;;;;;5015436;28;20034;-72
2023/11/30 06:44:00;;;;;;;18.23;12.70;;;;;;;;;;5015407;28;20034;-73
2023/11/30 06:46:26;;;;;;;13.13;9.30;;;;;;;;;;5015242;28;20014;-72
2023/11/30 06:48:51;;;;;;;23.05;13.48;;;;;;;;;;5015035;28;20029;-72
2023/11/30 06:51:16;;;;;;;29.27;19.05;;;;;;;;;;4977714;28;20045;-73
2023/11/30 06:53:42;;;;;;;30.63;18.52;;;;;;;;;;4995565;28;20113;-72
2023/11/30 06:56:11;;;;;;;31.85;19.35;;;;;;;;;;4996089;28;20461;-72
2023/11/30 06:58:37;;;;;;;31.00;20.30;;;;;;;;;;4995655;28;20065;-72
2023/11/30 07:01:12;;;;;;;36.60;20.73;;;;;;;;;;4995537;28;20365;-73
2023/11/30 07:03:37;;;;;;;30.92;19.50;;;;;;;;;;4993888;28;20477;-73
2023/11/30 07:06:03;;;;;;;28.08;17.77;;;;;;;;;;4993971;28;20040;-72
2023/11/30 07:08:29;;;;;;;29.08;16.30;;;;;;;;;;4994710;28;20057;-72
2023/11/30 07:10:54;;;;;;;20.83;14.18;;;;;;;;;;4995417;28;20026;-73
2023/11/30 07:13:20;;;;;;;22.23;12.98;;;;;;;;;;4995565;28;20030;-72
2023/11/30 07:15:45;;;;;;;17.13;12.23;;;;;;;;;;4995239;28;20066;-73
2023/11/30 07:18:13;;;;;;;18.00;11.88;;;;;;;;;;4995348;28;20041;-73
2023/11/30 07:20:39;;;;;;;17.13;11.98;;;;;;;;;;4995130;28;20031;-73
2023/11/30 07:23:04;;;;;;;19.33;13.10;;;;;;;;;;4995225;28;20034;-73
2023/11/30 07:25:30;;;;;;;45.45;25.40;;;;;;;;;;4994901;28;20077;-73
2023/11/30 07:27:55;;;;;;;31.17;20.33;;;;;;;;;;4994769;28;20153;-73
2023/11/30 07:30:21;;;;;;;32.65;20.73;;;;;;;;;;4994948;28;20385;-73
2023/11/30 07:32:46;;;;;;;30.50;20.48;;;;;;;;;;4994954;28;20392;-73
2023/11/30 07:35:12;;;;;;;37.10;22.83;;;;;;;;;;4994629;28;20524;-73
2023/11/30 07:37:37;;;;;;;43.10;25.63;;;;;;;;;;4994732;28;20034;-73
2023/11/30 07:40:03;;;;;;;39.90;24.05;;;;;;;;;;4994845;28;20038;-73
2023/11/30 07:42:29;;;;;;;40.50;23.35;;;;;;;;;;4993952;28;20034;-72
2023/11/30 07:44:54;;;;;;;37.83;23.30;;;;;;;;;;4993244;28;20057;-73
2023/11/30 07:47:20;;;;;;;33.90;21.60;;;;;;;;;;4977299;28;20027;-73
2023/11/30 07:49:46;;;;;;;31.65;20.20;;;;;;;;;;4993157;28;20041;-73
2023/11/30 07:52:13;;;;;;;36.80;21.65;;;;;;;;;;4977026;28;20536;-73
2023/11/30 07:54:38;;;;;;;36.67;21.75;;;;;;;;;;4993294;28;20432;-73
2023/11/30 07:57:04;;;;;;;32.80;20.70;;;;;;;;;;4994756;28;20034;-73
2023/11/30 07:59:29;;;;;;;33.15;20.45;;;;;;;;;;4994649;28;20026;-73
2023/11/30 08:01:55;;;;;;;32.13;19.70;;;;;;;;;;4993058;28;20026;-73
2023/11/30 08:04:21;;;;;;;35.63;20.52;;;;;;;;;;4994492;28;20133;-73
2023/11/30 08:06:46;;;;;;;32.08;20.52;;;;;;;;;;4994606;28;20461;-73
2023/11/30 08:09:13;;;;;;;28.67;19.30;;;;;;;;;;4993099;28;20037;-73
2023/11/30 08:11:40;;;;;;;28.38;18.13;;;;;;;;;;4994744;28;20464;-73
2023/11/30 08:14:05;;;;;;;28.30;16.40;;;;;;;;;;4994693;28;20048;-73
2023/11/30 08:16:31;;;;;;;29.05;17.35;;;;;;;;;;4994459;28;20109;-73
2023/11/30 08:18:56;;;;;;;26.45;17.60;;;;;;;;;;4994437;28;20038;-73
2023/11/30 08:21:22;;;;;;;24.75;16.55;;;;;;;;;;4979173;28;20018;-73
2023/11/30 08:23:47;;;;;;;23.88;15.55;;;;;;;;;;4998623;28;20038;-73
2023/11/30 08:26:15;;;;;;;24.85;14.85;;;;;;;;;;4997162;28;20030;-73
2023/11/30 08:28:41;;;;;;;21.58;14.57;;;;;;;;;;4997981;28;20030;-73
2023/11/30 08:31:08;;;;;;;20.70;13.50;;;;;;;;;;4980551;28;20029;-73
2023/11/30 08:33:34;;;;;;;18.73;13.07;;;;;;;;;;4997935;28;20034;-73
2023/11/30 08:36:00;;;;;;;20.42;13.57;;;;;;;;;;4997887;28;20054;-73
2023/11/30 08:38:26;;;;;;;15.30;10.13;;;;;;;;;;4998528;28;20026;-73
2023/11/30 08:40:52;;;;;;;19.90;13.25;;;;;;;;;;4997732;28;20160;-73
2023/11/30 08:43:17;;;;;;;16.55;12.00;;;;;;;;;;4995689;28;20105;-73
2023/11/30 08:45:43;;;;;;;16.33;11.80;;;;;;;;;;4996927;28;20037;-73
2023/11/30 08:48:08;;;;;;;17.67;12.25;;;;;;;;;;4997006;28;20117;-73
2023/11/30 08:50:34;;;;;;;20.85;12.50;;;;;;;;;;5007967;28;20038;-72
2023/11/30 08:52:59;;;;;;;19.23;12.48;;;;;;;;;;5016393;28;20065;-73
2023/11/30 08:55:24;;;;;;;19.25;12.73;;;;;;;;;;5015715;28;20080;-72
2023/11/30 08:57:50;;;;;;;18.65;12.77;;;;;;;;;;5016553;28;20404;-72
2023/11/30 09:00:16;;;;;;;19.48;13.30;;;;;;;;;;5015928;28;20034;-72
2023/11/30 09:02:43;;;;;;;22.13;13.88;;;;;;;;;;4998745;28;20096;-72
2023/11/30 09:05:11;;;;;;;20.02;13.77;;;;;;;;;;5016512;28;20033;-67
2023/11/30 09:07:37;;;;;;;24.90;15.10;;;;;;;;;;5016040;28;20040;-72
2023/11/30 09:10:04;;;;;;;24.35;16.55;;;;;;;;;;5016783;28;20030;-72
2023/11/30 09:12:31;;;;;;;26.98;17.45;;;;;;;;;;5016693;28;20014;-72
2023/11/30 09:14:59;;;;;;;29.23;17.85;;;;;;;;;;4998446;28;20034;-72
2023/11/30 09:17:24;;;;;;;35.03;20.67;;;;;;;;;;5015893;28;20026;-73
2023/11/30 09:19:50;;;;;;;34.83;21.38;;;;;;;;;;5015585;28;20026;-73
2023/11/30 09:22:15;;;;;;;32.55;20.75;;;;;;;;;;5015995;28;20069;-72
2023/11/30 09:24:41;;;;;;;33.85;20.63;;;;;;;;;;5016005;28;20057;-72
2023/11/30 09:27:06;;;;;;;27.23;18.02;;;;;;;;;;5015738;28;20101;-73
2023/11/30 09:29:34;;;;;;;30.98;20.00;;;;;;;;;;5016033;28;20033;-72
2023/11/30 09:32:00;;;;;;;32.00;21.45;;;;;;;;;;5015751;28;20022;-73
2023/11/30 09:34:25;;;;;;;32.72;21.17;;;;;;;;;;5016102;28;20506;-73
2023/11/30 09:36:51;;;;;;;27.83;19.05;;;;;;;;;;5015411;28;20030;-73
2023/11/30 09:39:19;;;;;;;27.25;18.25;;;;;;;;;;5015533;28;20025;-72
2023/11/30 09:41:45;;;;;;;20.75;14.57;;;;;;;;;;5015619;28;20244;-73
2023/11/30 09:44:11;;;;;;;26.90;17.00;;;;;;;;;;5015278;28;20034;-73
2023/11/30 09:46:37;;;;;;;24.10;16.05;;;;;;;;;;5016249;28;20028;-73
2023/11/30 09:49:05;;;;;;;24.88;16.73;;;;;;;;;;5016026;28;20590;-73
2023/11/30 09:51:31;;;;;;;28.67;18.75;;;;;;;;;;5016286;28;20041;-73
2023/11/30 09:53:57;;;;;;;28.42;19.13;;;;;;;;;;5015911;28;20026;-73
2023/11/30 09:56:26;;;;;;;34.92;21.73;;;;;;;;;;5015758;28;20040;-73
2023/11/30 09:58:51;;;;;;;36.05;23.17;;;;;;;;;;5015678;28;20436;-73
2023/11/30 10:01:17;;;;;;;32.17;20.33;;;;;;;;;;5015594;28;20108;-73
2023/11/30 10:03:42;;;;;;;18.58;13.63;;;;;;;;;;5015559;28;20022;-73
2023/11/30 10:06:08;;;;;;;23.63;16.02;;;;;;;;;;5015672;28;20472;-73
2023/11/30 10:08:33;;;;;;;23.48;16.92;;;;;;;;;;5015465;28;20096;-73
2023/11/30 10:10:59;;;;;;;25.27;16.52;;;;;;;;;;5015703;28;20029;-73
2023/11/30 10:13:25;;;;;;;23.42;15.30;;;;;;;;;;5014755;28;20461;-73
2023/11/30 10:15:50;;;;;;;26.02;16.92;;;;;;;;;;5015439;28;20033;-73
2023/11/30 10:18:16;;;;;;;24.05;15.23;;;;;;;;;;5015141;28;20026;-73
2023/11/30 10:20:43;;;;;;;22.65;14.50;;;;;;;;;;5015504;28;20029;-73
2023/11/30 10:23:12;;;;;;;27.60;15.63;;;;;;;;;;4996771;28;20130;-73
2023/11/30 10:25:40;;;;;;;22.10;14.50;;;;;;;;;;5015456;28;20064;-73
2023/11/30 10:28:09;;;;;;;23.30;14.95;;;;;;;;;;4997851;28;20028;-73
2023/11/30 10:30:38;;;;;;;24.13;14.90;;;;;;;;;;5015414;28;20109;-73
2023/11/30 10:33:07;;;;;;;22.60;14.45;;;;;;;;;;5015345;28;20038;-73
2023/11/30 10:35:33;;;;;;;24.27;14.70;;;;;;;;;;5014924;28;20193;-73
2023/11/30 10:38:00;;;;;;;22.08;14.45;;;;;;;;;;4997703;28;20132;-73
2023/11/30 10:40:26;;;;;;;24.60;15.45;;;;;;;;;;5013960;28;20127;-73
2023/11/30 10:42:52;;;;;;;27.58;14.75;;;;;;;;;;4995653;28;20030;-73
2023/11/30 10:45:19;;;;;;;24.58;13.65;;;;;;;;;;4996588;28;20068;-73
2023/11/30 10:47:45;;;;;;;49.47;28.35;;;;;;;;;;5014268;28;20427;-73
2023/11/30 10:50:13;;;;;;;19.00;12.25;;;;;;;;;;5013790;28;20025;-73
2023/11/30 10:52:39;;;;;;;19.65;11.88;;;;;;;;;;5013903;28;20042;-73
2023/11/30 10:55:10;;;;;;;32.28;21.02;;;;;;;;;;5014336;28;20365;-73
2023/11/30 10:57:35;;;;;;;43.38;25.27;;;;;;;;;;4995889;28;20038;-73
2023/11/30 11:00:02;;;;;;;50.78;29.92;;;;;;;;;;5013954;28;20083;-73
2023/11/30 11:02:40;;;;;;;18.80;12.38;;;;;;;;;;4996295;28;20048;-73
2023/11/30 11:05:09;;;;;;;16.63;12.02;;;;;;;;;;5014099;28;20110;-73
2023/11/30 11:07:45;;;;;;;16.55;9.93;;;;;;;;;;4997088;28;20030;-73
2023/11/30 11:10:31;;;;;;;18.67;11.55;;;;;;;;;;4996249;28;20381;-73
2023/11/30 11:13:00;;;;;;;25.65;15.38;;;;;;;;;;4989038;28;20053;-73
2023/11/30 11:15:29;;;;;;;23.10;14.88;;;;;;;;;;4996051;28;20053;-73
2023/11/30 11:17:55;;;;;;;21.02;12.93;;;;;;;;;;5013645;28;20030;-73
2023/11/30 11:20:29;;;;;;;21.30;13.45;;;;;;;;;;4996215;28;20059;-73
2023/11/30 11:23:03;;;;;;;21.88;13.57;;;;;;;;;;4980633;28;20064;-73
2023/11/30 11:25:29;;;;;;;24.40;14.63;;;;;;;;;;5013947;28;20373;-73
2023/11/30 11:27:55;;;;;;;23.83;14.80;;;;;;;;;;4996049;28;20024;-73
2023/11/30 11:30:26;;;;;;;23.20;14.85;;;;;;;;;;4996117;28;20022;-73
2023/11/30 11:32:55;;;;;;;24.08;15.18;;;;;;;;;;5013538;28;20062;-73
2023/11/30 11:35:21;;;;;;;21.40;13.77;;;;;;;;;;4995774;28;20037;-73
2023/11/30 11:37:46;;;;;;;25.10;14.05;;;;;;;;;;5013282;28;20276;-73
2023/11/30 11:40:12;;;;;;;22.08;13.65;;;;;;;;;;5013569;28;20044;-73
2023/11/30 11:42:38;;;;;;;23.00;13.75;;;;;;;;;;5013165;28;20053;-73
2023/11/30 11:45:04;;;;;;;18.98;12.57;;;;;;;;;;5013230;28;20037;-73
2023/11/30 11:47:29;;;;;;;17.63;11.15;;;;;;;;;;4995342;28;20030;-73
2023/11/30 11:49:55;;;;;;;22.50;11.70;;;;;;;;;;4992183;28;20038;-73
2023/11/30 11:52:22;;;;;;;28.55;14.00;;;;;;;;;;4992219;28;20033;-73
2023/11/30 11:55:03;;;;;;;34.80;17.38;;;;;;;;;;4993326;28;20027;-74
2023/11/30 11:57:39;;;;;;;36.03;17.23;;;;;;;;;;4975946;28;20026;-71
2023/11/30 12:00:07;;;;;;;31.80;15.48;;;;;;;;;;4991768;28;20069;-71
2023/11/30 12:02:35;;;;;;;25.20;13.15;;;;;;;;;;4975808;28;20129;-71
2023/11/30 12:05:12;;;;;;;31.42;16.08;;;;;;;;;;4993497;28;20062;-71
2023/11/30 12:07:48;;;;;;;40.45;20.45;;;;;;;;;;4975809;28;20045;-70
2023/11/30 12:10:34;;;;;;;19.95;12.15;;;;;;;;;;4959683;28;20397;-71
2023/11/30 12:13:02;;;;;;;23.33;13.63;;;;;;;;;;4989049;28;20456;-71
2023/11/30 12:15:28;;;;;;;25.83;14.57;;;;;;;;;;4975733;28;20030;-71
2023/11/30 12:17:53;;;;;;;22.00;10.63;;;;;;;;;;4975280;28;20436;-71
2023/11/30 12:20:19;;;;;;;43.00;22.30;;;;;;;;;;4993001;28;20034;-71
2023/11/30 12:22:45;;;;;;;43.58;23.67;;;;;;;;;;4991910;28;20054;-71
2023/11/30 12:25:11;;;;;;;38.30;21.80;;;;;;;;;;4993034;28;20033;-71
2023/11/30 12:27:36;;;;;;;23.98;14.55;;;;;;;;;;4993087;28;20380;-71
2023/11/30 12:30:02;;;;;;;22.88;14.38;;;;;;;;;;4993106;28;20401;-71
2023/11/30 12:32:27;;;;;;;17.60;12.32;;;;;;;;;;4992756;28;20026;-71
2023/11/30 12:34:56;;;;;;;23.23;13.30;;;;;;;;;;4991770;28;20053;-71
2023/11/30 12:37:22;;;;;;;37.42;20.15;;;;;;;;;;4991798;28;20034;-71
2023/11/30 12:39:48;;;;;;;45.75;23.33;;;;;;;;;;4975358;28;20420;-71
2023/11/30 12:42:14;;;;;;;36.67;19.88;;;;;;;;;;4975247;28;20023;-71
2023/11/30 12:44:39;;;;;;;38.83;19.83;;;;;;;;;;4992777;28;20030;-71
2023/11/30 12:47:05;;;;;;;39.63;20.83;;;;;;;;;;4992960;28;20023;-71
2023/11/30 12:49:30;;;;;;;34.63;19.48;;;;;;;;;;4995698;28;20065;-71
2023/11/30 12:51:56;;;;;;;22.48;13.65;;;;;;;;;;5012398;28;20034;-71
2023/11/30 12:54:21;;;;;;;28.85;16.10;;;;;;;;;;4995164;28;20100;-71
2023/11/30 12:56:47;;;;;;;39.88;22.73;;;;;;;;;;5012394;28;20541;-71
2023/11/30 12:59:12;;;;;;;47.22;24.63;;;;;;;;;;5012381;28;20058;-71
2023/11/30 13:01:38;;;;;;;60.33;27.33;;;;;;;;;;5012274;28;20129;-71
2023/11/30 13:04:04;;;;;;;43.45;24.45;;;;;;;;;;4994620;28;20034;-70
2023/11/30 13:06:29;;;;;;;81.32;40.83;;;;;;;;;;5013242;28;20038;-70
2023/11/30 13:08:54;;;;;;;61.05;33.13;;;;;;;;;;4998339;28;20022;-68
2023/11/30 13:11:20;;;;;;;43.97;25.27;;;;;;;;;;5015948;28;20156;-68
2023/11/30 13:13:46;;;;;;;26.25;15.90;;;;;;;;;;5015856;28;20033;-64
2023/11/30 13:16:11;;;;;;;24.35;15.02;;;;;;;;;;4998234;28;20041;-66
2023/11/30 13:18:36;;;;;;;21.73;14.38;;;;;;;;;;5015737;28;20030;-70
2023/11/30 13:21:02;;;;;;;16.88;11.60;;;;;;;;;;4998321;28;20480;-66
2023/11/30 13:23:28;;;;;;;19.65;12.38;;;;;;;;;;5015600;28;20022;-66
2023/11/30 13:25:53;;;;;;;20.75;13.95;;;;;;;;;;5015965;28;20494;-66
2023/11/30 13:28:19;;;;;;;21.70;14.55;;;;;;;;;;5015705;28;20494;-66
2023/11/30 13:30:45;;;;;;;25.25;16.25;;;;;;;;;;5015578;28;20487;-66
2023/11/30 13:33:10;;;;;;;27.88;14.88;;;;;;;;;;5015519;28;20026;-66
2023/11/30 13:35:35;;;;;;;27.90;16.85;;;;;;;;;;4981641;28;20434;-67
2023/11/30 13:38:01;;;;;;;23.27;12.30;;;;;;;;;;5015494;28;20064;-67
2023/11/30 13:40:27;;;;;;;22.63;12.13;;;;;;;;;;4997990;28;20034;-67
2023/11/30 13:42:52;;;;;;;22.70;12.85;;;;;;;;;;4997755;28;20052;-67
2023/11/30 13:45:20;;;;;;;22.40;13.77;;;;;;;;;;5015949;28;20038;-67
2023/11/30 13:47:47;;;;;;;23.08;13.57;;;;;;;;;;4997742;28;20434;-67
2023/11/30 13:50:17;;;;;;;30.60;16.13;;;;;;;;;;5015052;28;20559;-67
2023/11/30 13:52:45;;;;;;;53.53;24.65;;;;;;;;;;5014906;28;20022;-67
2023/11/30 13:55:11;;;;;;;56.60;28.17;;;;;;;;;;5015054;28;20033;-67
2023/11/30 13:57:36;;;;;;;62.33;28.13;;;;;;;;;;5014763;28;20388;-67
2023/11/30 14:00:05;;;;;;;47.78;23.67;;;;;;;;;;5014942;28;20369;-67
2023/11/30 14:02:31;;;;;;;72.47;34.45;;;;;;;;;;4981702;28;20030;-72
2023/11/30 14:04:57;;;;;;;83.80;41.35;;;;;;;;;;5015657;28;20034;-73
2023/11/30 14:07:23;;;;;;;84.63;39.45;;;;;;;;;;5015658;28;20025;-72
2023/11/30 14:09:49;;;;;;;85.72;38.53;;;;;;;;;;4998477;28;20100;-73
2023/11/30 14:12:17;;;;;;;73.05;33.78;;;;;;;;;;5015472;28;20026;-73